sensor_id;sensor_type;location;lat;lon;timestamp;P1;durP1;ratioP1;P2;durP2;ratioP2
68050;SDS011;54839;51.364;7.246;2023-03-24T00:01:50;5.10;;;2.20;;
68050;SDS011;54839;51.364;7.246;2023-03-24T00:04:17;2.87;;;2.10;;
68050;SDS011;54839;51.364;7.246;2023-03-24T00:06:42;4.03;;;2.67;;
68050;SDS011;54839;51.364;7.246;2023-03-24T00:09:08;2.93;;;1.90;;
68050;SDS011;54839;51.364;7.246;2023-03-24T00:11:34;3.20;;;2.13;;
68050;SDS011;54839;51.364;7.246;2023-03-24T00:14:00;5.13;;;2.30;;
68050;SDS011;54839;51.364;7.246;2023-03-24T00:16:27;6.17;;;2.87;;
68050;SDS011;54839;51.364;7.246;2023-03-24T00:18:53;3.43;;;2.43;;
68050;SDS011;54839;51.364;7.246;2023-03-24T00:21:19;4.03;;;2.83;;
68050;SDS011;54839;51.364;7.246;2023-03-24T00:23:46;8.23;;;2.60;;
68050;SDS011;54839;51.364;7.246;2023-03-24T00:26:13;2.53;;;2.33;;
68050;SDS011;54839;51.364;7.246;2023-03-24T00:28:44;5.80;;;2.50;;
68050;SDS011;54839;51.364;7.246;2023-03-24T00:31:11;5.00;;;2.50;;
68050;SDS011;54839;51.364;7.246;2023-03-24T00:33:39;2.20;;;2.00;;
68050;SDS011;54839;51.364;7.246;2023-03-24T00:36:06;2.57;;;1.93;;
68050;SDS011;54839;51.364;7.246;2023-03-24T00:38:35;4.03;;;2.40;;
68050;SDS011;54839;51.364;7.246;2023-03-24T00:41:02;4.43;;;2.50;;
68050;SDS011;54839;51.364;7.246;2023-03-24T00:43:30;3.97;;;2.40;;
68050;SDS011;54839;51.364;7.246;2023-03-24T00:45:57;4.23;;;2.60;;
68050;SDS011;54839;51.364;7.246;2023-03-24T00:48:28;3.87;;;2.30;;
68050;SDS011;54839;51.364;7.246;2023-03-24T00:50:54;3.20;;;2.33;;
68050;SDS011;54839;51.364;7.246;2023-03-24T00:53:20;2.40;;;2.20;;
68050;SDS011;54839;51.364;7.246;2023-03-24T00:55:53;2.20;;;2.00;;
68050;SDS011;54839;51.364;7.246;2023-03-24T00:58:19;3.77;;;2.37;;
68050;SDS011;54839;51.364;7.246;2023-03-24T01:00:49;2.33;;;2.00;;
68050;SDS011;54839;51.364;7.246;2023-03-24T01:03:16;2.60;;;1.63;;
68050;SDS011;54839;51.364;7.246;2023-03-24T01:05:45;3.10;;;2.50;;
68050;SDS011;54839;51.364;7.246;2023-03-24T01:08:13;3.10;;;2.50;;
68050;SDS011;54839;51.364;7.246;2023-03-24T01:10:44;2.97;;;1.70;;
68050;SDS011;54839;51.364;7.246;2023-03-24T01:13:15;4.47;;;3.10;;
68050;SDS011;54839;51.364;7.246;2023-03-24T01:15:41;2.40;;;2.10;;
68050;SDS011;54839;51.364;7.246;2023-03-24T01:18:08;2.67;;;2.10;;
68050;SDS011;54839;51.364;7.246;2023-03-24T01:20:36;3.00;;;2.60;;
68050;SDS011;54839;51.364;7.246;2023-03-24T01:23:04;3.27;;;2.33;;
68050;SDS011;54839;51.364;7.246;2023-03-24T01:25:31;2.30;;;2.10;;
68050;SDS011;54839;51.364;7.246;2023-03-24T01:27:57;2.57;;;2.37;;
68050;SDS011;54839;51.364;7.246;2023-03-24T01:30:23;4.63;;;2.13;;
68050;SDS011;54839;51.364;7.246;2023-03-24T01:32:51;4.33;;;2.60;;
68050;SDS011;54839;51.364;7.246;2023-03-24T01:35:17;3.50;;;2.53;;
68050;SDS011;54839;51.364;7.246;2023-03-24T01:37:43;3.87;;;2.50;;
68050;SDS011;54839;51.364;7.246;2023-03-24T01:40:10;2.93;;;2.63;;
68050;SDS011;54839;51.364;7.246;2023-03-24T01:42:41;3.43;;;2.90;;
68050;SDS011;54839;51.364;7.246;2023-03-24T01:48:11;3.27;;;2.10;;
68050;SDS011;54839;51.364;7.246;2023-03-24T01:50:48;5.57;;;2.50;;
68050;SDS011;54839;51.364;7.246;2023-03-24T01:53:18;5.80;;;2.90;;
68050;SDS011;54839;51.364;7.246;2023-03-24T01:55:45;3.83;;;3.33;;
68050;SDS011;54839;51.364;7.246;2023-03-24T01:58:12;5.67;;;2.70;;
68050;SDS011;54839;51.364;7.246;2023-03-24T02:00:37;3.60;;;2.40;;
68050;SDS011;54839;51.364;7.246;2023-03-24T02:03:06;5.47;;;2.93;;
68050;SDS011;54839;51.364;7.246;2023-03-24T02:05:36;2.83;;;2.60;;
68050;SDS011;54839;51.364;7.246;2023-03-24T02:11:06;3.13;;;2.90;;
68050;SDS011;54839;51.364;7.246;2023-03-24T02:13:32;4.50;;;2.97;;
68050;SDS011;54839;51.364;7.246;2023-03-24T02:16:13;3.90;;;2.27;;
68050;SDS011;54839;51.364;7.246;2023-03-24T02:30:02;3.33;;;2.70;;
68050;SDS011;54839;51.364;7.246;2023-03-24T02:46:34;6.37;;;3.57;;
68050;SDS011;54839;51.364;7.246;2023-03-24T02:57:33;3.13;;;2.83;;
68050;SDS011;54839;51.364;7.246;2023-03-24T03:00:12;4.40;;;3.50;;
68050;SDS011;54839;51.364;7.246;2023-03-24T03:03:01;4.57;;;3.57;;
68050;SDS011;54839;51.364;7.246;2023-03-24T03:06:00;4.30;;;3.53;;
68050;SDS011;54839;51.364;7.246;2023-03-24T03:08:31;4.47;;;2.80;;
68050;SDS011;54839;51.364;7.246;2023-03-24T03:10:58;5.23;;;2.97;;
68050;SDS011;54839;51.364;7.246;2023-03-24T03:13:29;3.40;;;2.73;;
68050;SDS011;54839;51.364;7.246;2023-03-24T03:15:59;3.80;;;3.10;;
68050;SDS011;54839;51.364;7.246;2023-03-24T03:21:04;4.13;;;2.50;;
68050;SDS011;54839;51.364;7.246;2023-03-24T03:23:34;4.70;;;3.33;;
68050;SDS011;54839;51.364;7.246;2023-03-24T03:26:04;3.30;;;3.00;;
68050;SDS011;54839;51.364;7.246;2023-03-24T03:28:34;2.30;;;2.00;;
68050;SDS011;54839;51.364;7.246;2023-03-24T03:31:04;3.80;;;3.27;;
68050;SDS011;54839;51.364;7.246;2023-03-24T03:33:36;3.00;;;2.80;;
68050;SDS011;54839;51.364;7.246;2023-03-24T03:36:07;2.50;;;2.30;;
68050;SDS011;54839;51.364;7.246;2023-03-24T03:41:19;5.03;;;3.00;;
68050;SDS011;54839;51.364;7.246;2023-03-24T03:43:46;3.73;;;3.40;;
68050;SDS011;54839;51.364;7.246;2023-03-24T03:46:13;6.10;;;3.20;;
68050;SDS011;54839;51.364;7.246;2023-03-24T03:48:40;4.10;;;3.70;;
68050;SDS011;54839;51.364;7.246;2023-03-24T03:51:06;5.87;;;2.63;;
68050;SDS011;54839;51.364;7.246;2023-03-24T03:53:38;3.37;;;3.03;;
68050;SDS011;54839;51.364;7.246;2023-03-24T03:56:11;5.17;;;3.73;;
68050;SDS011;54839;51.364;7.246;2023-03-24T03:58:42;2.23;;;2.03;;
68050;SDS011;54839;51.364;7.246;2023-03-24T04:01:10;3.13;;;2.83;;
68050;SDS011;54839;51.364;7.246;2023-03-24T04:09:09;4.13;;;3.20;;
68050;SDS011;54839;51.364;7.246;2023-03-24T04:14:56;3.70;;;3.17;;
68050;SDS011;54839;51.364;7.246;2023-03-24T04:31:25;6.50;;;3.60;;
68050;SDS011;54839;51.364;7.246;2023-03-24T04:34:12;2.93;;;2.73;;
68050;SDS011;54839;51.364;7.246;2023-03-24T04:36:46;4.40;;;3.77;;
68050;SDS011;54839;51.364;7.246;2023-03-24T04:39:20;7.90;;;4.00;;
68050;SDS011;54839;51.364;7.246;2023-03-24T04:41:52;4.40;;;3.10;;
68050;SDS011;54839;51.364;7.246;2023-03-24T04:44:20;3.37;;;2.53;;
68050;SDS011;54839;51.364;7.246;2023-03-24T04:46:49;3.80;;;3.40;;
68050;SDS011;54839;51.364;7.246;2023-03-24T04:49:18;4.50;;;2.47;;
68050;SDS011;54839;51.364;7.246;2023-03-24T04:51:44;4.63;;;3.00;;
68050;SDS011;54839;51.364;7.246;2023-03-24T04:54:10;2.20;;;1.93;;
68050;SDS011;54839;51.364;7.246;2023-03-24T04:56:43;2.57;;;2.00;;
68050;SDS011;54839;51.364;7.246;2023-03-24T04:59:11;4.77;;;1.97;;
68050;SDS011;54839;51.364;7.246;2023-03-24T05:01:38;2.47;;;1.37;;
68050;SDS011;54839;51.364;7.246;2023-03-24T05:04:04;1.63;;;1.47;;
68050;SDS011;54839;51.364;7.246;2023-03-24T05:06:30;2.27;;;2.07;;
68050;SDS011;54839;51.364;7.246;2023-03-24T05:08:56;2.70;;;2.20;;
68050;SDS011;54839;51.364;7.246;2023-03-24T05:11:23;2.20;;;2.00;;
68050;SDS011;54839;51.364;7.246;2023-03-24T05:13:51;3.07;;;2.23;;
68050;SDS011;54839;51.364;7.246;2023-03-24T05:16:16;2.53;;;1.90;;
68050;SDS011;54839;51.364;7.246;2023-03-24T05:18:42;2.73;;;2.40;;
68050;SDS011;54839;51.364;7.246;2023-03-24T05:21:08;3.30;;;2.43;;
68050;SDS011;54839;51.364;7.246;2023-03-24T05:23:33;2.60;;;2.40;;
68050;SDS011;54839;51.364;7.246;2023-03-24T05:25:59;5.67;;;2.90;;
68050;SDS011;54839;51.364;7.246;2023-03-24T05:28:25;4.20;;;2.67;;
68050;SDS011;54839;51.364;7.246;2023-03-24T05:30:50;3.20;;;2.50;;
68050;SDS011;54839;51.364;7.246;2023-03-24T05:33:16;2.53;;;2.33;;
68050;SDS011;54839;51.364;7.246;2023-03-24T05:35:41;5.33;;;3.80;;
68050;SDS011;54839;51.364;7.246;2023-03-24T05:38:07;3.30;;;3.00;;
68050;SDS011;54839;51.364;7.246;2023-03-24T05:40:33;1.37;;;1.17;;
68050;SDS011;54839;51.364;7.246;2023-03-24T05:42:59;4.10;;;1.93;;
68050;SDS011;54839;51.364;7.246;2023-03-24T05:45:25;4.10;;;1.87;;
68050;SDS011;54839;51.364;7.246;2023-03-24T05:47:51;2.40;;;1.60;;
68050;SDS011;54839;51.364;7.246;2023-03-24T05:50:16;2.17;;;1.50;;
68050;SDS011;54839;51.364;7.246;2023-03-24T05:52:42;4.60;;;1.70;;
68050;SDS011;54839;51.364;7.246;2023-03-24T05:55:07;3.10;;;1.23;;
68050;SDS011;54839;51.364;7.246;2023-03-24T05:57:34;4.53;;;1.00;;
68050;SDS011;54839;51.364;7.246;2023-03-24T06:00:00;4.47;;;2.00;;
68050;SDS011;54839;51.364;7.246;2023-03-24T06:02:30;3.63;;;1.67;;
68050;SDS011;54839;51.364;7.246;2023-03-24T06:04:56;5.10;;;1.53;;
68050;SDS011;54839;51.364;7.246;2023-03-24T06:07:21;2.90;;;1.50;;
68050;SDS011;54839;51.364;7.246;2023-03-24T06:09:50;2.97;;;1.37;;
68050;SDS011;54839;51.364;7.246;2023-03-24T06:12:16;5.00;;;1.60;;
68050;SDS011;54839;51.364;7.246;2023-03-24T06:14:42;6.03;;;1.93;;
68050;SDS011;54839;51.364;7.246;2023-03-24T06:17:09;4.40;;;1.93;;
68050;SDS011;54839;51.364;7.246;2023-03-24T06:19:39;3.73;;;1.43;;
68050;SDS011;54839;51.364;7.246;2023-03-24T06:22:13;2.50;;;1.30;;
68050;SDS011;54839;51.364;7.246;2023-03-24T06:24:42;3.50;;;1.90;;
68050;SDS011;54839;51.364;7.246;2023-03-24T06:27:09;2.13;;;1.50;;
68050;SDS011;54839;51.364;7.246;2023-03-24T06:29:36;3.87;;;1.20;;
68050;SDS011;54839;51.364;7.246;2023-03-24T06:32:02;2.20;;;1.07;;
68050;SDS011;54839;51.364;7.246;2023-03-24T06:34:29;6.80;;;1.70;;
68050;SDS011;54839;51.364;7.246;2023-03-24T06:36:56;6.93;;;2.00;;
68050;SDS011;54839;51.364;7.246;2023-03-24T06:39:21;2.77;;;1.50;;
68050;SDS011;54839;51.364;7.246;2023-03-24T06:41:47;7.73;;;2.40;;
68050;SDS011;54839;51.364;7.246;2023-03-24T06:44:13;3.77;;;1.37;;
68050;SDS011;54839;51.364;7.246;2023-03-24T06:46:38;3.47;;;1.77;;
68050;SDS011;54839;51.364;7.246;2023-03-24T06:49:04;2.27;;;1.13;;
68050;SDS011;54839;51.364;7.246;2023-03-24T06:51:30;3.77;;;1.10;;
68050;SDS011;54839;51.364;7.246;2023-03-24T06:53:56;2.30;;;0.90;;
68050;SDS011;54839;51.364;7.246;2023-03-24T06:56:22;1.93;;;0.97;;
68050;SDS011;54839;51.364;7.246;2023-03-24T06:58:47;4.67;;;1.90;;
68050;SDS011;54839;51.364;7.246;2023-03-24T07:01:13;10.20;;;2.00;;
68050;SDS011;54839;51.364;7.246;2023-03-24T07:03:39;1.50;;;1.40;;
68050;SDS011;54839;51.364;7.246;2023-03-24T07:06:06;3.00;;;1.37;;
68050;SDS011;54839;51.364;7.246;2023-03-24T07:08:33;8.27;;;2.30;;
68050;SDS011;54839;51.364;7.246;2023-03-24T07:10:59;6.60;;;1.80;;
68050;SDS011;54839;51.364;7.246;2023-03-24T07:13:26;7.20;;;1.70;;
68050;SDS011;54839;51.364;7.246;2023-03-24T07:15:52;6.77;;;2.00;;
68050;SDS011;54839;51.364;7.246;2023-03-24T07:18:17;6.00;;;2.40;;
68050;SDS011;54839;51.364;7.246;2023-03-24T07:20:43;4.40;;;1.50;;
68050;SDS011;54839;51.364;7.246;2023-03-24T07:23:09;3.43;;;1.37;;
68050;SDS011;54839;51.364;7.246;2023-03-24T07:25:36;4.43;;;1.93;;
68050;SDS011;54839;51.364;7.246;2023-03-24T07:28:03;6.77;;;1.73;;
68050;SDS011;54839;51.364;7.246;2023-03-24T07:30:29;4.93;;;1.70;;
68050;SDS011;54839;51.364;7.246;2023-03-24T07:32:55;7.90;;;2.33;;
68050;SDS011;54839;51.364;7.246;2023-03-24T07:35:21;8.77;;;2.60;;
68050;SDS011;54839;51.364;7.246;2023-03-24T07:37:46;5.80;;;2.37;;
68050;SDS011;54839;51.364;7.246;2023-03-24T07:40:13;4.50;;;1.50;;
68050;SDS011;54839;51.364;7.246;2023-03-24T07:42:40;11.83;;;2.70;;
68050;SDS011;54839;51.364;7.246;2023-03-24T07:45:10;11.53;;;4.90;;
68050;SDS011;54839;51.364;7.246;2023-03-24T07:47:37;12.53;;;2.50;;
68050;SDS011;54839;51.364;7.246;2023-03-24T07:50:06;5.97;;;1.63;;
68050;SDS011;54839;51.364;7.246;2023-03-24T07:52:38;6.23;;;1.60;;
68050;SDS011;54839;51.364;7.246;2023-03-24T07:55:06;7.47;;;1.70;;
68050;SDS011;54839;51.364;7.246;2023-03-24T07:57:35;7.03;;;2.13;;
68050;SDS011;54839;51.364;7.246;2023-03-24T08:00:03;11.03;;;3.10;;
68050;SDS011;54839;51.364;7.246;2023-03-24T08:02:58;4.07;;;1.50;;
68050;SDS011;54839;51.364;7.246;2023-03-24T08:05:24;5.53;;;1.60;;
68050;SDS011;54839;51.364;7.246;2023-03-24T08:07:54;7.97;;;2.80;;
68050;SDS011;54839;51.364;7.246;2023-03-24T08:10:23;10.10;;;2.17;;
68050;SDS011;54839;51.364;7.246;2023-03-24T08:12:51;6.90;;;1.67;;
68050;SDS011;54839;51.364;7.246;2023-03-24T08:15:17;4.93;;;1.73;;
68050;SDS011;54839;51.364;7.246;2023-03-24T08:17:43;3.37;;;1.30;;
68050;SDS011;54839;51.364;7.246;2023-03-24T08:20:09;4.03;;;1.73;;
68050;SDS011;54839;51.364;7.246;2023-03-24T08:22:42;9.13;;;1.97;;
68050;SDS011;54839;51.364;7.246;2023-03-24T08:25:13;7.33;;;1.80;;
68050;SDS011;54839;51.364;7.246;2023-03-24T08:27:40;4.50;;;1.73;;
68050;SDS011;54839;51.364;7.246;2023-03-24T08:30:08;7.23;;;2.37;;
68050;SDS011;54839;51.364;7.246;2023-03-24T08:32:41;4.33;;;2.03;;
68050;SDS011;54839;51.364;7.246;2023-03-24T08:35:12;7.40;;;3.20;;
68050;SDS011;54839;51.364;7.246;2023-03-24T08:37:39;4.53;;;1.67;;
68050;SDS011;54839;51.364;7.246;2023-03-24T08:40:07;6.77;;;2.10;;
68050;SDS011;54839;51.364;7.246;2023-03-24T08:42:37;5.83;;;1.93;;
68050;SDS011;54839;51.364;7.246;2023-03-24T08:45:03;4.63;;;1.83;;
68050;SDS011;54839;51.364;7.246;2023-03-24T08:47:29;11.80;;;3.00;;
68050;SDS011;54839;51.364;7.246;2023-03-24T08:49:55;16.97;;;3.40;;
68050;SDS011;54839;51.364;7.246;2023-03-24T08:52:24;9.40;;;4.50;;
68050;SDS011;54839;51.364;7.246;2023-03-24T08:54:50;5.53;;;2.33;;
68050;SDS011;54839;51.364;7.246;2023-03-24T08:57:16;7.80;;;2.80;;
68050;SDS011;54839;51.364;7.246;2023-03-24T08:59:42;7.50;;;2.80;;
68050;SDS011;54839;51.364;7.246;2023-03-24T09:02:11;6.77;;;2.60;;
68050;SDS011;54839;51.364;7.246;2023-03-24T09:04:37;10.43;;;3.57;;
68050;SDS011;54839;51.364;7.246;2023-03-24T09:07:03;12.33;;;3.60;;
68050;SDS011;54839;51.364;7.246;2023-03-24T09:09:30;8.43;;;3.30;;
68050;SDS011;54839;51.364;7.246;2023-03-24T09:11:57;4.50;;;2.43;;
68050;SDS011;54839;51.364;7.246;2023-03-24T09:14:23;8.67;;;3.27;;
68050;SDS011;54839;51.364;7.246;2023-03-24T09:16:48;14.53;;;3.73;;
68050;SDS011;54839;51.364;7.246;2023-03-24T09:19:15;5.07;;;2.10;;
68050;SDS011;54839;51.364;7.246;2023-03-24T09:21:42;21.17;;;4.30;;
68050;SDS011;54839;51.364;7.246;2023-03-24T09:24:10;15.27;;;3.70;;
68050;SDS011;54839;51.364;7.246;2023-03-24T09:26:35;12.33;;;3.27;;
68050;SDS011;54839;51.364;7.246;2023-03-24T09:29:01;8.70;;;3.20;;
68050;SDS011;54839;51.364;7.246;2023-03-24T09:31:27;5.93;;;3.00;;
68050;SDS011;54839;51.364;7.246;2023-03-24T09:33:53;6.80;;;2.50;;
68050;SDS011;54839;51.364;7.246;2023-03-24T09:36:18;12.00;;;4.33;;
68050;SDS011;54839;51.364;7.246;2023-03-24T09:38:45;7.73;;;2.80;;
68050;SDS011;54839;51.364;7.246;2023-03-24T09:41:17;6.80;;;2.40;;
68050;SDS011;54839;51.364;7.246;2023-03-24T09:43:50;11.40;;;2.40;;
68050;SDS011;54839;51.364;7.246;2023-03-24T09:46:29;9.20;;;2.00;;
68050;SDS011;54839;51.364;7.246;2023-03-24T09:48:59;7.07;;;1.70;;
68050;SDS011;54839;51.364;7.246;2023-03-24T09:54:17;7.33;;;2.10;;
68050;SDS011;54839;51.364;7.246;2023-03-24T09:56:48;10.37;;;2.53;;
68050;SDS011;54839;51.364;7.246;2023-03-24T09:59:17;14.57;;;3.07;;
68050;SDS011;54839;51.364;7.246;2023-03-24T10:01:49;9.77;;;2.40;;
68050;SDS011;54839;51.364;7.246;2023-03-24T10:04:18;4.03;;;2.10;;
68050;SDS011;54839;51.364;7.246;2023-03-24T10:06:45;5.77;;;2.10;;
68050;SDS011;54839;51.364;7.246;2023-03-24T10:15:01;8.27;;;3.13;;
68050;SDS011;54839;51.364;7.246;2023-03-24T10:23:29;4.33;;;1.97;;
68050;SDS011;54839;51.364;7.246;2023-03-24T10:26:08;11.50;;;2.90;;
68050;SDS011;54839;51.364;7.246;2023-03-24T10:28:43;3.83;;;1.40;;
68050;SDS011;54839;51.364;7.246;2023-03-24T10:31:35;6.03;;;2.70;;
68050;SDS011;54839;51.364;7.246;2023-03-24T10:34:02;9.00;;;3.30;;
68050;SDS011;54839;51.364;7.246;2023-03-24T10:36:28;8.77;;;2.20;;
68050;SDS011;54839;51.364;7.246;2023-03-24T10:38:54;5.77;;;2.30;;
68050;SDS011;54839;51.364;7.246;2023-03-24T10:41:21;4.83;;;1.90;;
68050;SDS011;54839;51.364;7.246;2023-03-24T10:43:52;6.83;;;1.70;;
68050;SDS011;54839;51.364;7.246;2023-03-24T10:46:21;9.43;;;2.87;;
68050;SDS011;54839;51.364;7.246;2023-03-24T10:48:50;13.20;;;3.50;;
68050;SDS011;54839;51.364;7.246;2023-03-24T10:51:25;14.53;;;2.90;;
68050;SDS011;54839;51.364;7.246;2023-03-24T10:56:51;9.67;;;2.83;;
68050;SDS011;54839;51.364;7.246;2023-03-24T11:02:30;6.77;;;2.37;;
68050;SDS011;54839;51.364;7.246;2023-03-24T11:05:00;6.40;;;2.90;;
68050;SDS011;54839;51.364;7.246;2023-03-24T11:07:36;4.23;;;2.33;;
68050;SDS011;54839;51.364;7.246;2023-03-24T11:12:40;5.10;;;1.93;;
68050;SDS011;54839;51.364;7.246;2023-03-24T11:15:19;10.03;;;3.37;;
68050;SDS011;54839;51.364;7.246;2023-03-24T11:20:34;8.53;;;3.30;;
68050;SDS011;54839;51.364;7.246;2023-03-24T11:25:36;8.13;;;1.50;;
68050;SDS011;54839;51.364;7.246;2023-03-24T11:28:05;9.13;;;2.60;;
68050;SDS011;54839;51.364;7.246;2023-03-24T11:30:54;8.77;;;2.67;;
68050;SDS011;54839;51.364;7.246;2023-03-24T11:33:25;8.67;;;2.80;;
68050;SDS011;54839;51.364;7.246;2023-03-24T11:35:59;7.60;;;2.43;;
68050;SDS011;54839;51.364;7.246;2023-03-24T11:38:29;12.13;;;2.93;;
68050;SDS011;54839;51.364;7.246;2023-03-24T11:40:57;5.60;;;2.77;;
68050;SDS011;54839;51.364;7.246;2023-03-24T11:43:25;10.73;;;2.60;;
68050;SDS011;54839;51.364;7.246;2023-03-24T11:46:06;13.70;;;2.17;;
68050;SDS011;54839;51.364;7.246;2023-03-24T11:48:49;6.07;;;2.53;;
68050;SDS011;54839;51.364;7.246;2023-03-24T11:51:39;3.60;;;1.27;;
68050;SDS011;54839;51.364;7.246;2023-03-24T11:54:05;9.37;;;3.47;;
68050;SDS011;54839;51.364;7.246;2023-03-24T11:59:32;6.67;;;1.67;;
68050;SDS011;54839;51.364;7.246;2023-03-24T12:14:06;11.00;;;3.43;;
68050;SDS011;54839;51.364;7.246;2023-03-24T12:16:36;8.53;;;2.80;;
68050;SDS011;54839;51.364;7.246;2023-03-24T12:32:54;2.30;;;1.10;;
68050;SDS011;54839;51.364;7.246;2023-03-24T12:35:36;4.70;;;1.40;;
68050;SDS011;54839;51.364;7.246;2023-03-24T12:38:33;5.37;;;1.97;;
68050;SDS011;54839;51.364;7.246;2023-03-24T12:41:16;4.23;;;1.80;;
68050;SDS011;54839;51.364;7.246;2023-03-24T12:44:05;4.60;;;1.70;;
68050;SDS011;54839;51.364;7.246;2023-03-24T12:49:18;4.13;;;1.40;;
68050;SDS011;54839;51.364;7.246;2023-03-24T12:54:39;5.13;;;1.87;;
68050;SDS011;54839;51.364;7.246;2023-03-24T12:57:17;5.47;;;2.93;;
68050;SDS011;54839;51.364;7.246;2023-03-24T12:59:47;4.43;;;1.33;;
68050;SDS011;54839;51.364;7.246;2023-03-24T13:02:37;10.63;;;2.53;;
68050;SDS011;54839;51.364;7.246;2023-03-24T13:05:14;8.97;;;1.57;;
68050;SDS011;54839;51.364;7.246;2023-03-24T13:07:45;5.47;;;1.87;;
68050;SDS011;54839;51.364;7.246;2023-03-24T13:10:21;2.47;;;1.67;;
68050;SDS011;54839;51.364;7.246;2023-03-24T13:12:52;4.47;;;2.07;;
68050;SDS011;54839;51.364;7.246;2023-03-24T13:15:27;7.87;;;1.90;;
68050;SDS011;54839;51.364;7.246;2023-03-24T13:20:26;9.97;;;2.10;;
68050;SDS011;54839;51.364;7.246;2023-03-24T13:22:57;13.97;;;2.30;;
68050;SDS011;54839;51.364;7.246;2023-03-24T13:28:27;8.80;;;2.40;;
68050;SDS011;54839;51.364;7.246;2023-03-24T13:30:58;3.93;;;2.03;;
68050;SDS011;54839;51.364;7.246;2023-03-24T13:33:27;8.97;;;2.03;;
68050;SDS011;54839;51.364;7.246;2023-03-24T13:38:34;4.00;;;1.50;;
68050;SDS011;54839;51.364;7.246;2023-03-24T13:41:03;7.93;;;2.20;;
68050;SDS011;54839;51.364;7.246;2023-03-24T13:43:31;5.33;;;1.20;;
68050;SDS011;54839;51.364;7.246;2023-03-24T13:46:04;7.60;;;2.70;;
68050;SDS011;54839;51.364;7.246;2023-03-24T13:48:37;8.00;;;3.10;;
68050;SDS011;54839;51.364;7.246;2023-03-24T13:53:43;8.97;;;1.63;;
68050;SDS011;54839;51.364;7.246;2023-03-24T13:56:31;8.17;;;2.40;;
68050;SDS011;54839;51.364;7.246;2023-03-24T14:01:36;4.00;;;1.30;;
68050;SDS011;54839;51.364;7.246;2023-03-24T14:04:19;4.80;;;1.60;;
68050;SDS011;54839;51.364;7.246;2023-03-24T14:06:47;6.60;;;1.80;;
68050;SDS011;54839;51.364;7.246;2023-03-24T14:09:20;7.63;;;1.50;;
68050;SDS011;54839;51.364;7.246;2023-03-24T14:11:48;5.30;;;1.77;;
68050;SDS011;54839;51.364;7.246;2023-03-24T14:14:21;5.13;;;3.07;;
68050;SDS011;54839;51.364;7.246;2023-03-24T14:16:49;3.53;;;1.47;;
68050;SDS011;54839;51.364;7.246;2023-03-24T14:19:28;7.07;;;1.77;;
68050;SDS011;54839;51.364;7.246;2023-03-24T14:22:03;6.60;;;1.73;;
68050;SDS011;54839;51.364;7.246;2023-03-24T14:24:38;4.30;;;1.30;;
68050;SDS011;54839;51.364;7.246;2023-03-24T14:27:22;2.80;;;1.70;;
68050;SDS011;54839;51.364;7.246;2023-03-24T14:30:18;7.30;;;1.80;;
68050;SDS011;54839;51.364;7.246;2023-03-24T14:32:55;5.47;;;1.23;;
68050;SDS011;54839;51.364;7.246;2023-03-24T14:37:54;1.97;;;1.20;;
68050;SDS011;54839;51.364;7.246;2023-03-24T14:40:23;1.83;;;0.90;;
68050;SDS011;54839;51.364;7.246;2023-03-24T14:42:52;5.30;;;0.80;;
68050;SDS011;54839;51.364;7.246;2023-03-24T14:48:13;3.90;;;0.70;;
68050;SDS011;54839;51.364;7.246;2023-03-24T14:50:47;3.20;;;0.97;;
68050;SDS011;54839;51.364;7.246;2023-03-24T14:53:16;2.60;;;1.27;;
68050;SDS011;54839;51.364;7.246;2023-03-24T14:55:44;3.07;;;1.07;;
68050;SDS011;54839;51.364;7.246;2023-03-24T14:58:34;2.20;;;0.77;;
68050;SDS011;54839;51.364;7.246;2023-03-24T15:01:01;1.70;;;0.93;;
68050;SDS011;54839;51.364;7.246;2023-03-24T15:06:12;2.60;;;0.97;;
68050;SDS011;54839;51.364;7.246;2023-03-24T15:08:42;2.97;;;1.00;;
68050;SDS011;54839;51.364;7.246;2023-03-24T15:11:09;4.97;;;1.53;;
68050;SDS011;54839;51.364;7.246;2023-03-24T15:13:54;6.30;;;2.13;;
68050;SDS011;54839;51.364;7.246;2023-03-24T15:21:22;2.13;;;1.53;;
68050;SDS011;54839;51.364;7.246;2023-03-24T15:23:53;3.90;;;1.37;;
68050;SDS011;54839;51.364;7.246;2023-03-24T15:26:20;2.20;;;0.63;;
68050;SDS011;54839;51.364;7.246;2023-03-24T15:28:52;7.50;;;1.20;;
68050;SDS011;54839;51.364;7.246;2023-03-24T15:31:18;2.73;;;1.07;;
68050;SDS011;54839;51.364;7.246;2023-03-24T15:33:46;3.20;;;0.93;;
68050;SDS011;54839;51.364;7.246;2023-03-24T15:36:13;6.23;;;1.60;;
68050;SDS011;54839;51.364;7.246;2023-03-24T15:38:43;6.70;;;1.43;;
68050;SDS011;54839;51.364;7.246;2023-03-24T15:41:15;4.00;;;1.17;;
68050;SDS011;54839;51.364;7.246;2023-03-24T15:43:45;4.80;;;1.77;;
68050;SDS011;54839;51.364;7.246;2023-03-24T15:46:27;6.60;;;1.17;;
68050;SDS011;54839;51.364;7.246;2023-03-24T15:48:54;5.83;;;1.60;;
68050;SDS011;54839;51.364;7.246;2023-03-24T15:54:23;3.80;;;1.60;;
68050;SDS011;54839;51.364;7.246;2023-03-24T15:59:31;3.10;;;1.50;;
68050;SDS011;54839;51.364;7.246;2023-03-24T16:01:59;5.60;;;0.90;;
68050;SDS011;54839;51.364;7.246;2023-03-24T16:04:27;7.97;;;1.60;;
68050;SDS011;54839;51.364;7.246;2023-03-24T16:06:53;6.87;;;2.00;;
68050;SDS011;54839;51.364;7.246;2023-03-24T16:09:21;5.17;;;2.10;;
68050;SDS011;54839;51.364;7.246;2023-03-24T16:11:51;2.43;;;1.63;;
68050;SDS011;54839;51.364;7.246;2023-03-24T16:16:53;5.97;;;2.03;;
68050;SDS011;54839;51.364;7.246;2023-03-24T16:19:19;2.97;;;0.73;;
68050;SDS011;54839;51.364;7.246;2023-03-24T16:21:45;2.87;;;1.23;;
68050;SDS011;54839;51.364;7.246;2023-03-24T16:24:10;2.73;;;1.10;;
68050;SDS011;54839;51.364;7.246;2023-03-24T16:26:36;4.93;;;1.00;;
68050;SDS011;54839;51.364;7.246;2023-03-24T16:29:07;7.97;;;1.40;;
68050;SDS011;54839;51.364;7.246;2023-03-24T16:31:38;2.87;;;1.10;;
68050;SDS011;54839;51.364;7.246;2023-03-24T16:34:03;2.70;;;0.83;;
68050;SDS011;54839;51.364;7.246;2023-03-24T16:36:29;2.10;;;1.20;;
68050;SDS011;54839;51.364;7.246;2023-03-24T16:38:56;2.20;;;0.80;;
68050;SDS011;54839;51.364;7.246;2023-03-24T16:41:23;1.37;;;0.73;;
68050;SDS011;54839;51.364;7.246;2023-03-24T16:43:49;2.60;;;2.40;;
68050;SDS011;54839;51.364;7.246;2023-03-24T16:46:34;1.40;;;1.07;;
68050;SDS011;54839;51.364;7.246;2023-03-24T16:49:02;3.20;;;0.90;;
68050;SDS011;54839;51.364;7.246;2023-03-24T16:51:29;2.73;;;0.60;;
68050;SDS011;54839;51.364;7.246;2023-03-24T16:53:55;1.90;;;1.30;;
68050;SDS011;54839;51.364;7.246;2023-03-24T16:56:21;3.00;;;1.40;;
68050;SDS011;54839;51.364;7.246;2023-03-24T16:58:47;2.47;;;1.10;;
68050;SDS011;54839;51.364;7.246;2023-03-24T17:03:57;4.03;;;1.67;;
68050;SDS011;54839;51.364;7.246;2023-03-24T17:06:25;8.13;;;1.33;;
68050;SDS011;54839;51.364;7.246;2023-03-24T17:08:53;2.97;;;1.27;;
68050;SDS011;54839;51.364;7.246;2023-03-24T17:11:22;2.73;;;0.90;;
68050;SDS011;54839;51.364;7.246;2023-03-24T17:13:51;1.20;;;0.83;;
68050;SDS011;54839;51.364;7.246;2023-03-24T17:16:18;4.07;;;1.43;;
68050;SDS011;54839;51.364;7.246;2023-03-24T17:18:44;4.20;;;1.50;;
68050;SDS011;54839;51.364;7.246;2023-03-24T17:21:11;1.40;;;0.80;;
68050;SDS011;54839;51.364;7.246;2023-03-24T17:23:39;3.90;;;0.63;;
68050;SDS011;54839;51.364;7.246;2023-03-24T17:26:05;2.20;;;1.67;;
68050;SDS011;54839;51.364;7.246;2023-03-24T17:28:31;2.37;;;1.07;;
68050;SDS011;54839;51.364;7.246;2023-03-24T17:30:56;2.20;;;0.77;;
68050;SDS011;54839;51.364;7.246;2023-03-24T17:33:22;2.30;;;0.70;;
68050;SDS011;54839;51.364;7.246;2023-03-24T17:35:47;2.60;;;1.20;;
68050;SDS011;54839;51.364;7.246;2023-03-24T17:38:13;1.77;;;1.27;;
68050;SDS011;54839;51.364;7.246;2023-03-24T17:40:40;1.57;;;1.20;;
68050;SDS011;54839;51.364;7.246;2023-03-24T17:43:06;2.67;;;0.90;;
68050;SDS011;54839;51.364;7.246;2023-03-24T17:45:31;1.40;;;0.80;;
68050;SDS011;54839;51.364;7.246;2023-03-24T17:47:57;1.90;;;0.80;;